Time,TemperatureF,DewpointF,PressureIn,WindDirection,WindDirectionDegrees,WindSpeedMPH,WindSpeedGustMPH,Humidity,HourlyPrecipIn,Conditions,Clouds,dailyrainin,SoftwareType,DateUTC
2013-03-09 00:00:00,33.6,23.8,30.21,NE,34,0.0,0.0,67,0.00,,,0.15,Wunderground v.1.15,2013-03-09 05:00:00,
2013-03-09 00:05:00,33.4,23.6,30.21,NE,34,0.0,0.0,67,0.00,,,0.00,Wunderground v.1.15,2013-03-09 05:05:00,
2013-03-09 00:15:00,33.9,23.7,30.21,NW,323,1.0,1.0,66,0.00,,,0.00,Wunderground v.1.15,2013-03-09 05:15:00,
2013-03-09 00:20:00,34.1,23.9,30.21,North,10,1.0,1.0,66,0.00,,,0.00,Wunderground v.1.15,2013-03-09 05:20:00,
2013-03-09 00:25:00,34.0,23.8,30.21,North,11,1.0,1.0,66,0.00,,,0.00,Wunderground v.1.15,2013-03-09 05:25:00,
2013-03-09 00:30:00,33.8,23.6,30.21,North,11,0.0,0.0,66,0.00,,,0.00,Wunderground v.1.15,2013-03-09 05:30:00,
2013-03-09 00:40:00,33.5,23.7,30.21,ENE,63,0.0,0.0,67,0.00,,,0.00,Wunderground v.1.15,2013-03-09 05:40:00,
2013-03-09 00:45:00,33.6,23.8,30.22,NNE,24,0.0,0.0,67,0.00,,,0.00,Wunderground v.1.15,2013-03-09 05:45:00,
2013-03-09 00:55:00,33.3,23.9,30.22,NE,46,1.0,3.0,68,0.00,,,0.00,Wunderground v.1.15,2013-03-09 05:55:00,
2013-03-09 01:00:00,33.2,23.8,30.22,ENE,61,1.0,1.0,68,0.00,,,0.00,Wunderground v.1.15,2013-03-09 06:00:00,
2013-03-09 01:05:00,33.2,23.8,30.22,NW,313,1.0,1.0,68,0.00,,,0.00,Wunderground v.1.15,2013-03-09 06:05:00,
2013-03-09 01:15:00,32.5,23.5,30.22,NW,313,0.0,0.0,69,0.00,,,0.00,Wunderground v.1.15,2013-03-09 06:15:00,
2013-03-09 01:25:00,32.3,23.6,30.21,NE,39,0.0,0.0,70,0.00,,,0.00,Wunderground v.1.15,2013-03-09 06:25:00,
2013-03-09 01:30:00,32.3,23.6,30.21,NE,39,0.0,0.0,70,0.00,,,0.00,Wunderground v.1.15,2013-03-09 06:30:00,
2013-03-09 01:40:00,31.9,23.6,30.21,North,360,1.0,1.0,71,0.00,,,0.00,Wunderground v.1.15,2013-03-09 06:40:00,
2013-03-09 01:45:00,31.7,23.4,30.21,North,360,0.0,1.0,71,0.00,,,0.00,Wunderground v.1.15,2013-03-09 06:45:00,
2013-03-09 01:55:00,31.4,23.4,30.21,SW,229,0.0,0.0,72,0.00,,,0.00,Wunderground v.1.15,2013-03-09 06:55:00,
2013-03-09 02:00:00,31.1,22.8,30.21,SE,138,0.0,0.0,71,0.00,,,0.00,Wunderground v.1.15,2013-03-09 07:00:00,
2013-03-09 02:05:00,30.8,22.8,30.21,SE,139,0.0,0.0,72,0.00,,,0.00,Wunderground v.1.15,2013-03-09 07:05:00,
2013-03-09 02:15:00,30.0,22.7,30.21,ENE,69,0.0,0.0,74,0.00,,,0.00,Wunderground v.1.15,2013-03-09 07:15:00,
2013-03-09 02:20:00,30.1,22.8,30.21,ENE,69,0.0,1.0,74,0.00,,,0.00,Wunderground v.1.15,2013-03-09 07:20:00,
2013-03-09 02:30:00,30.5,23.2,30.20,WNW,288,0.0,0.0,74,0.00,,,0.00,Wunderground v.1.15,2013-03-09 07:30:00,
2013-03-09 02:35:00,30.6,23.3,30.20,WNW,288,0.0,0.0,74,0.00,,,0.00,Wunderground v.1.15,2013-03-09 07:35:00,
2013-03-09 02:45:00,30.7,23.1,30.20,WNW,288,0.0,0.0,73,0.00,,,0.00,Wunderground v.1.15,2013-03-09 07:45:00,
2013-03-09 02:50:00,30.7,23.1,30.20,NE,37,0.0,0.0,73,0.00,,,0.00,Wunderground v.1.15,2013-03-09 07:50:00,
2013-03-09 03:00:00,30.7,23.4,30.20,NE,38,0.0,0.0,74,0.00,,,0.00,Wunderground v.1.15,2013-03-09 08:00:00,
2013-03-09 03:05:00,30.7,23.1,30.20,NNE,27,0.0,2.0,73,0.00,,,0.00,Wunderground v.1.15,2013-03-09 08:05:00,
2013-03-09 03:15:00,30.7,23.1,30.20,NNE,22,0.0,1.0,73,0.00,,,0.00,Wunderground v.1.15,2013-03-09 08:15:00,
2013-03-09 03:20:00,30.9,23.3,30.19,NNE,12,0.0,0.0,73,0.00,,,0.00,Wunderground v.1.15,2013-03-09 08:20:00,
2013-03-09 03:30:00,31.9,23.6,30.19,North,5,2.0,4.0,71,0.00,,,0.00,Wunderground v.1.15,2013-03-09 08:30:00,
2013-03-09 03:35:00,32.0,23.3,30.20,NNW,347,2.0,4.0,70,0.00,,,0.00,Wunderground v.1.15,2013-03-09 08:35:00,
2013-03-09 03:45:00,31.6,23.3,30.20,WNW,282,0.0,2.0,71,0.00,,,0.00,Wunderground v.1.15,2013-03-09 08:45:00,
2013-03-09 03:50:00,31.3,23.0,30.20,NNE,28,1.0,1.0,71,0.00,,,0.00,Wunderground v.1.15,2013-03-09 08:50:00,
2013-03-09 04:00:00,30.9,22.9,30.20,NNW,348,1.0,1.0,72,0.00,,,0.00,Wunderground v.1.15,2013-03-09 09:00:00,
2013-03-09 04:05:00,30.7,22.7,30.20,WNW,299,0.0,1.0,72,0.00,,,0.00,Wunderground v.1.15,2013-03-09 09:05:00,
2013-03-09 04:15:00,30.5,22.5,30.20,North,360,0.0,3.0,72,0.00,,,0.00,Wunderground v.1.15,2013-03-09 09:15:00,
2013-03-09 04:20:00,30.6,23.0,30.21,NNE,25,1.0,6.0,73,0.00,,,0.00,Wunderground v.1.15,2013-03-09 09:20:00,
2013-03-09 04:30:00,30.8,23.2,30.21,NNE,13,1.0,2.0,73,0.00,,,0.00,Wunderground v.1.15,2013-03-09 09:30:00,
2013-03-09 04:35:00,30.8,22.8,30.21,NW,310,1.0,2.0,72,0.00,,,0.00,Wunderground v.1.15,2013-03-09 09:35:00,
2013-03-09 04:45:00,30.4,22.8,30.22,ENE,59,0.0,0.0,73,0.00,,,0.00,Wunderground v.1.15,2013-03-09 09:45:00,
2013-03-09 04:50:00,30.6,23.0,30.22,NNW,335,1.0,1.0,73,0.00,,,0.00,Wunderground v.1.15,2013-03-09 09:50:00,
2013-03-09 05:00:00,30.5,22.5,30.22,NNE,14,0.0,0.0,72,0.00,,,0.00,Wunderground v.1.15,2013-03-09 10:00:00,
2013-03-09 05:05:00,30.3,23.0,30.23,WNW,287,0.0,0.0,74,0.00,,,0.00,Wunderground v.1.15,2013-03-09 10:05:00,
2013-03-09 05:15:00,30.0,22.7,30.23,WNW,288,0.0,1.0,74,0.00,,,0.00,Wunderground v.1.15,2013-03-09 10:15:00,
2013-03-09 05:20:00,29.8,22.5,30.23,WSW,242,0.0,1.0,74,0.00,,,0.00,Wunderground v.1.15,2013-03-09 10:20:00,
2013-03-09 05:30:00,29.5,22.2,30.23,WSW,240,0.0,0.0,74,0.00,,,0.00,Wunderground v.1.15,2013-03-09 10:30:00,
2013-03-09 05:35:00,29.3,22.7,30.23,WSW,240,0.0,0.0,76,0.00,,,0.00,Wunderground v.1.15,2013-03-09 10:35:00,
2013-03-09 05:45:00,29.1,22.2,30.23,WSW,240,0.0,2.0,75,0.00,,,0.00,Wunderground v.1.15,2013-03-09 10:45:00,
2013-03-09 05:50:00,29.0,22.1,30.23,North,349,0.0,0.0,75,0.00,,,0.00,Wunderground v.1.15,2013-03-09 10:50:00,
2013-03-09 06:00:00,29.1,22.5,30.24,North,349,0.0,0.0,76,0.00,,,0.00,Wunderground v.1.15,2013-03-09 11:00:00,
2013-03-09 06:05:00,29.1,22.5,30.24,North,349,0.0,0.0,76,0.00,,,0.00,Wunderground v.1.15,2013-03-09 11:05:00,
2013-03-09 06:15:00,29.0,22.4,30.24,North,350,0.0,1.0,76,0.00,,,0.00,Wunderground v.1.15,2013-03-09 11:15:00,
2013-03-09 06:20:00,28.5,21.9,30.25,North,351,0.0,0.0,76,0.00,,,0.00,Wunderground v.1.15,2013-03-09 11:20:00,
2013-03-09 06:30:00,28.2,21.9,30.25,SSW,198,0.0,0.0,77,0.00,,,0.00,Wunderground v.1.15,2013-03-09 11:30:00,
2013-03-09 06:35:00,28.3,22.3,30.25,SW,223,0.0,0.0,78,0.00,,,0.00,Wunderground v.1.15,2013-03-09 11:35:00,
2013-03-09 06:40:00,28.5,22.2,30.25,SW,223,0.0,1.0,77,0.00,,,0.00,Wunderground v.1.15,2013-03-09 11:40:00,
2013-03-09 06:50:00,28.7,22.4,30.25,ENE,71,0.0,0.0,77,0.00,,,0.00,Wunderground v.1.15,2013-03-09 11:50:00,
2013-03-09 06:55:00,29.0,22.7,30.25,North,360,0.0,0.0,77,0.00,,,0.00,Wunderground v.1.15,2013-03-09 11:55:00,
2013-03-09 07:05:00,29.9,22.9,30.25,NW,318,0.0,0.0,75,0.00,,,0.00,Wunderground v.1.15,2013-03-09 12:05:00,
2013-03-09 07:15:00,31.2,23.2,30.25,North,10,1.0,5.0,72,0.00,,,0.00,Wunderground v.1.15,2013-03-09 12:15:00,
2013-03-09 07:20:00,31.9,23.2,30.26,North,5,2.0,2.0,70,0.00,,,0.00,Wunderground v.1.15,2013-03-09 12:20:00,
2013-03-09 07:30:00,32.6,23.6,30.26,North,5,2.0,2.0,69,0.00,,,0.00,Wunderground v.1.15,2013-03-09 12:30:00,
2013-03-09 07:35:00,32.9,23.5,30.25,NE,42,2.0,3.0,68,0.00,,,0.00,Wunderground v.1.15,2013-03-09 12:35:00,
2013-03-09 07:45:00,33.5,23.7,30.26,NW,321,3.0,6.0,67,0.00,,,0.00,Wunderground v.1.15,2013-03-09 12:45:00,
2013-03-09 07:50:00,33.8,23.6,30.26,North,355,3.0,3.0,66,0.00,,,0.00,Wunderground v.1.15,2013-03-09 12:50:00,
2013-03-09 07:55:00,34.3,23.7,30.26,NE,42,2.0,5.0,65,0.00,,,0.00,Wunderground v.1.15,2013-03-09 12:55:00,
2013-03-09 08:05:00,34.9,23.9,30.26,North,360,2.0,5.0,64,0.00,,,0.00,Wunderground v.1.15,2013-03-09 13:05:00,
2013-03-09 08:15:00,35.6,23.9,30.25,West,268,2.0,2.0,62,0.00,,,0.00,Wunderground v.1.15,2013-03-09 13:15:00,
2013-03-09 08:20:00,36.0,23.8,30.25,WNW,294,1.0,1.0,61,0.00,,,0.00,Wunderground v.1.15,2013-03-09 13:20:00,
2013-03-09 08:30:00,37.0,24.0,30.26,WNW,293,0.0,1.0,59,0.00,,,0.00,Wunderground v.1.15,2013-03-09 13:30:00,
2013-03-09 08:35:00,37.6,24.1,30.26,NNW,336,0.0,3.0,58,0.00,,,0.00,Wunderground v.1.15,2013-03-09 13:35:00,
2013-03-09 08:40:00,37.8,24.3,30.26,WNW,288,1.0,2.0,58,0.00,,,0.00,Wunderground v.1.15,2013-03-09 13:40:00,
2013-03-09 08:50:00,38.2,24.3,30.25,NNW,331,2.0,2.0,57,0.00,,,0.00,Wunderground v.1.15,2013-03-09 13:50:00,
2013-03-09 08:55:00,38.6,24.7,30.25,WSW,257,1.0,2.0,57,0.00,,,0.00,Wunderground v.1.15,2013-03-09 13:55:00,
2013-03-09 09:05:00,39.3,24.5,30.25,NW,324,1.0,2.0,55,0.00,,,0.00,Wunderground v.1.15,2013-03-09 14:05:00,
2013-03-09 09:15:00,40.0,24.7,30.25,West,273,2.0,4.0,54,0.00,,,0.00,Wunderground v.1.15,2013-03-09 14:15:00,
2013-03-09 09:20:00,40.3,24.5,30.25,WNW,287,1.0,1.0,53,0.00,,,0.00,Wunderground v.1.15,2013-03-09 14:20:00,
2013-03-09 09:25:00,40.7,24.4,30.25,NNE,15,1.0,2.0,52,0.00,,,0.00,Wunderground v.1.15,2013-03-09 14:25:00,
2013-03-09 09:35:00,41.6,24.3,30.25,NNE,25,1.0,4.0,50,0.00,,,0.00,Wunderground v.1.15,2013-03-09 14:35:00,
2013-03-09 09:40:00,42.0,23.7,30.25,NNW,338,2.0,2.0,48,0.00,,,0.00,Wunderground v.1.15,2013-03-09 14:40:00,
2013-03-09 09:50:00,42.7,24.4,30.25,NW,326,2.0,2.0,48,0.00,,,0.00,Wunderground v.1.15,2013-03-09 14:50:00,
2013-03-09 09:55:00,42.9,24.5,30.25,North,5,2.0,5.0,48,0.00,,,0.00,Wunderground v.1.15,2013-03-09 14:55:00,
2013-03-09 10:05:00,43.3,24.4,30.26,North,355,3.0,4.0,47,0.00,,,0.00,Wunderground v.1.15,2013-03-09 15:05:00,
2013-03-09 10:15:00,43.8,24.3,30.26,NW,326,2.0,3.0,46,0.00,,,0.00,Wunderground v.1.15,2013-03-09 15:15:00,
2013-03-09 10:20:00,44.1,24.6,30.25,NNE,15,2.0,2.0,46,0.00,,,0.00,Wunderground v.1.15,2013-03-09 15:20:00,
2013-03-09 10:25:00,44.5,24.5,30.25,West,263,1.0,2.0,45,0.00,,,0.00,Wunderground v.1.15,2013-03-09 15:25:00,
2013-03-09 10:35:00,45.2,24.0,30.25,WNW,301,2.0,3.0,43,0.00,,,0.00,Wunderground v.1.15,2013-03-09 15:35:00,
2013-03-09 10:40:00,45.4,23.6,30.25,NW,323,2.0,3.0,42,0.00,,,0.00,Wunderground v.1.15,2013-03-09 15:40:00,
2013-03-09 10:50:00,46.0,23.6,30.25,NNW,331,2.0,2.0,41,0.00,,,0.00,Wunderground v.1.15,2013-03-09 15:50:00,
2013-03-09 10:55:00,46.5,23.4,30.25,North,10,2.0,2.0,40,0.00,,,0.00,Wunderground v.1.15,2013-03-09 15:55:00,
2013-03-09 11:05:00,46.7,23.6,30.25,North,10,4.0,4.0,40,0.00,,,0.00,Wunderground v.1.15,2013-03-09 16:05:00,
2013-03-09 11:15:00,47.5,24.9,30.25,NW,324,2.0,3.0,41,0.00,,,0.00,Wunderground v.1.15,2013-03-09 16:15:00,
2013-03-09 11:20:00,47.9,24.1,30.25,WNW,286,1.0,3.0,39,0.00,,,0.00,Wunderground v.1.15,2013-03-09 16:20:00,
2013-03-09 11:25:00,48.0,24.2,30.25,NNW,333,2.0,3.0,39,0.00,,,0.00,Wunderground v.1.15,2013-03-09 16:25:00,
2013-03-09 11:35:00,48.6,23.5,30.25,NW,326,2.0,3.0,37,0.00,,,0.00,Wunderground v.1.15,2013-03-09 16:35:00,
2013-03-09 11:40:00,48.8,22.3,30.25,NNW,337,3.0,3.0,35,0.00,,,0.00,Wunderground v.1.15,2013-03-09 16:40:00,
2013-03-09 11:50:00,49.2,22.7,30.25,NW,321,3.0,3.0,35,0.00,,,0.00,Wunderground v.1.15,2013-03-09 16:50:00,
2013-03-09 11:55:00,49.6,23.0,30.25,West,281,2.0,3.0,35,0.00,,,0.00,Wunderground v.1.15,2013-03-09 16:55:00,
2013-03-09 12:05:00,50.2,22.9,30.25,NW,323,2.0,3.0,34,0.00,,,0.00,Wunderground v.1.15,2013-03-09 17:05:00,
2013-03-09 12:15:00,50.4,22.3,30.25,WNW,294,2.0,2.0,33,0.00,,,0.00,Wunderground v.1.15,2013-03-09 17:15:00,
2013-03-09 12:20:00,50.6,22.5,30.25,NNW,332,2.0,2.0,33,0.00,,,0.00,Wunderground v.1.15,2013-03-09 17:20:00,
2013-03-09 12:25:00,50.7,21.9,30.25,WNW,286,3.0,3.0,32,0.00,,,0.00,Wunderground v.1.15,2013-03-09 17:25:00,
2013-03-09 12:30:00,50.9,22.1,30.24,NNE,17,3.0,3.0,32,0.00,,,0.00,Wunderground v.1.15,2013-03-09 17:30:00,
2013-03-09 12:40:00,51.1,21.5,30.24,NNW,340,2.0,2.0,31,0.00,,,0.00,Wunderground v.1.15,2013-03-09 17:40:00,
2013-03-09 12:45:00,51.4,22.5,30.24,North,11,2.0,2.0,32,0.00,,,0.00,Wunderground v.1.15,2013-03-09 17:45:00,
2013-03-09 12:55:00,51.6,21.1,30.23,NW,304,2.0,5.0,30,0.00,,,0.00,Wunderground v.1.15,2013-03-09 17:55:00,
2013-03-09 13:05:00,52.2,21.7,30.23,NNE,19,2.0,2.0,30,0.00,,,0.00,Wunderground v.1.15,2013-03-09 18:05:00,
2013-03-09 13:15:00,53.0,21.6,30.23,NNW,331,1.0,6.0,29,0.00,,,0.00,Wunderground v.1.15,2013-03-09 18:15:00,
2013-03-09 13:20:00,53.2,22.5,30.23,West,278,1.0,1.0,30,0.00,,,0.00,Wunderground v.1.15,2013-03-09 18:20:00,
2013-03-09 13:25:00,53.6,22.9,30.23,SW,229,1.0,4.0,30,0.00,,,0.00,Wunderground v.1.15,2013-03-09 18:25:00,
2013-03-09 13:35:00,54.0,22.4,30.22,NNW,336,1.0,1.0,29,0.00,,,0.00,Wunderground v.1.15,2013-03-09 18:35:00,
2013-03-09 13:40:00,54.1,22.5,30.22,North,355,1.0,1.0,29,0.00,,,0.00,Wunderground v.1.15,2013-03-09 18:40:00,
2013-03-09 13:45:00,54.4,21.9,30.22,NW,313,1.0,1.0,28,0.00,,,0.00,Wunderground v.1.15,2013-03-09 18:45:00,
2013-03-09 13:55:00,54.9,22.4,30.22,NNE,26,1.0,1.0,28,0.00,,,0.00,Wunderground v.1.15,2013-03-09 18:55:00,
2013-03-09 14:00:00,55.0,24.1,30.22,South,188,0.0,1.0,30,0.00,,,0.00,Wunderground v.1.15,2013-03-09 19:00:00,
2013-03-09 14:05:00,54.8,23.1,30.22,NNW,327,1.0,1.0,29,0.00,,,0.00,Wunderground v.1.15,2013-03-09 19:05:00,
2013-03-09 14:15:00,55.0,21.6,30.22,SSW,193,1.0,3.0,27,0.00,,,0.00,Wunderground v.1.15,2013-03-09 19:15:00,
2013-03-09 14:20:00,55.1,20.8,30.21,South,169,1.0,1.0,26,0.00,,,0.00,Wunderground v.1.15,2013-03-09 19:20:00,
2013-03-09 14:25:00,54.7,21.3,30.21,SSE,160,1.0,3.0,27,0.00,,,0.00,Wunderground v.1.15,2013-03-09 19:25:00,
2013-03-09 14:30:00,54.4,22.8,30.21,NW,313,1.0,1.0,29,0.00,,,0.00,Wunderground v.1.15,2013-03-09 19:30:00,
2013-03-09 14:40:00,55.0,21.6,30.21,NW,314,0.0,0.0,27,0.00,,,0.00,Wunderground v.1.15,2013-03-09 19:40:00,
2013-03-09 14:45:00,55.3,22.7,30.21,SW,223,1.0,1.0,28,0.00,,,0.00,Wunderground v.1.15,2013-03-09 19:45:00,
2013-03-09 14:55:00,56.2,21.7,30.21,NW,317,0.0,1.0,26,0.00,,,0.00,Wunderground v.1.15,2013-03-09 19:55:00,
2013-03-09 15:00:00,56.4,21.0,30.21,WSW,251,1.0,1.0,25,0.00,,,0.00,Wunderground v.1.15,2013-03-09 20:00:00,
2013-03-09 15:05:00,56.4,22.8,30.21,SW,220,1.0,1.0,27,0.00,,,0.00,Wunderground v.1.15,2013-03-09 20:05:00,
2013-03-09 15:15:00,56.7,20.3,30.22,East,79,0.0,0.0,24,0.00,,,0.00,Wunderground v.1.15,2013-03-09 20:15:00,
2013-03-09 15:20:00,56.6,20.2,30.22,NNW,348,1.0,1.0,24,0.00,,,0.00,Wunderground v.1.15,2013-03-09 20:20:00,
2013-03-09 15:25:00,56.2,19.8,30.22,NNW,346,1.0,1.0,24,0.00,,,0.00,Wunderground v.1.15,2013-03-09 20:25:00,
2013-03-09 15:30:00,56.3,20.9,30.22,NNW,344,1.0,1.0,25,0.00,,,0.00,Wunderground v.1.15,2013-03-09 20:30:00,
2013-03-09 15:40:00,56.1,19.8,30.22,North,11,1.0,1.0,24,0.00,,,0.00,Wunderground v.1.15,2013-03-09 20:40:00,
2013-03-09 15:45:00,56.2,19.8,30.22,SW,214,0.0,1.0,24,0.00,,,0.00,Wunderground v.1.15,2013-03-09 20:45:00,
2013-03-09 15:55:00,56.4,21.0,30.22,South,184,0.0,1.0,25,0.00,,,0.00,Wunderground v.1.15,2013-03-09 20:55:00,
2013-03-09 16:00:00,55.9,22.4,30.22,SSW,208,0.0,0.0,27,0.00,,,0.00,Wunderground v.1.15,2013-03-09 21:00:00,
2013-03-09 16:05:00,55.8,19.5,30.22,SSW,211,0.0,0.0,24,0.00,,,0.00,Wunderground v.1.15,2013-03-09 21:05:00,
2013-03-09 16:15:00,56.1,20.7,30.22,WSW,253,0.0,6.0,25,0.00,,,0.00,Wunderground v.1.15,2013-03-09 21:15:00,
2013-03-09 16:25:00,55.7,19.4,30.23,NNE,28,1.0,1.0,24,0.00,,,0.00,Wunderground v.1.15,2013-03-09 21:25:00,
2013-03-09 16:30:00,55.7,21.3,30.23,NNW,327,1.0,1.0,26,0.00,,,0.00,Wunderground v.1.15,2013-03-09 21:30:00,
2013-03-09 16:40:00,55.1,19.9,30.23,WSW,257,1.0,1.0,25,0.00,,,0.00,Wunderground v.1.15,2013-03-09 21:40:00,
2013-03-09 16:45:00,54.6,20.4,30.23,West,261,0.0,1.0,26,0.00,,,0.00,Wunderground v.1.15,2013-03-09 21:45:00,
2013-03-09 16:55:00,53.6,21.2,30.23,North,360,0.0,0.0,28,0.00,,,0.00,Wunderground v.1.15,2013-03-09 21:55:00,
2013-03-09 17:00:00,53.2,20.0,30.23,NW,321,1.0,1.0,27,0.00,,,0.00,Wunderground v.1.15,2013-03-09 22:00:00,
2013-03-09 17:05:00,52.9,20.6,30.24,NW,317,1.0,2.0,28,0.00,,,0.00,Wunderground v.1.15,2013-03-09 22:05:00,
2013-03-09 17:15:00,52.2,20.0,30.25,NNE,14,1.0,1.0,28,0.00,,,0.00,Wunderground v.1.15,2013-03-09 22:15:00,
2013-03-09 17:25:00,51.6,20.3,30.25,NNW,331,0.0,0.0,29,0.00,,,0.00,Wunderground v.1.15,2013-03-09 22:25:00,
2013-03-09 17:35:00,50.5,23.1,30.26,North,355,0.0,0.0,34,0.00,,,0.00,Wunderground v.1.15,2013-03-09 22:35:00,
2013-03-09 17:40:00,49.7,21.0,30.26,North,355,0.0,0.0,32,0.00,,,0.00,Wunderground v.1.15,2013-03-09 22:40:00,
2013-03-09 17:50:00,48.1,22.4,30.26,North,355,0.0,0.0,36,0.00,,,0.00,Wunderground v.1.15,2013-03-09 22:50:00,
2013-03-09 17:55:00,47.3,24.2,30.26,North,355,0.0,0.0,40,0.00,,,0.00,Wunderground v.1.15,2013-03-09 22:55:00,
2013-03-09 18:05:00,45.1,27.6,30.26,North,355,0.0,0.0,50,0.00,,,0.00,Wunderground v.1.15,2013-03-09 23:05:00,
2013-03-09 18:15:00,43.0,25.6,30.27,North,355,0.0,0.0,50,0.00,,,0.00,Wunderground v.1.15,2013-03-09 23:15:00,
2013-03-09 18:20:00,42.0,27.0,30.27,North,355,0.0,0.0,55,0.00,,,0.00,Wunderground v.1.15,2013-03-09 23:20:00,
2013-03-09 18:25:00,41.1,26.6,30.27,North,355,0.0,0.0,56,0.00,,,0.00,Wunderground v.1.15,2013-03-09 23:25:00,
2013-03-09 18:35:00,39.7,26.9,30.27,North,355,0.0,0.0,60,0.00,,,0.00,Wunderground v.1.15,2013-03-09 23:35:00,
2013-03-09 18:40:00,38.9,27.4,30.27,North,355,0.0,0.0,63,0.00,,,0.00,Wunderground v.1.15,2013-03-09 23:40:00,
2013-03-09 18:50:00,37.5,26.8,30.28,North,355,0.0,0.0,65,0.00,,,0.00,Wunderground v.1.15,2013-03-09 23:50:00,
2013-03-09 18:55:00,37.1,26.4,30.28,North,355,0.0,0.0,65,0.00,,,0.00,Wunderground v.1.15,2013-03-09 23:55:00,
2013-03-09 19:05:00,36.4,26.1,30.28,North,355,0.0,0.0,66,0.00,,,0.00,Wunderground v.1.15,2013-03-10 00:05:00,
2013-03-09 19:15:00,35.0,27.2,30.28,West,275,0.0,0.0,73,0.00,,,0.00,Wunderground v.1.15,2013-03-10 00:15:00,
2013-03-09 19:20:00,34.4,27.3,30.28,West,276,0.0,0.0,75,0.00,,,0.00,Wunderground v.1.15,2013-03-10 00:20:00,
2013-03-09 19:25:00,34.4,27.3,30.29,West,276,0.0,0.0,75,0.00,,,0.00,Wunderground v.1.15,2013-03-10 00:25:00,
2013-03-09 19:35:00,34.4,27.3,30.29,NNW,338,1.0,2.0,75,0.00,,,0.00,Wunderground v.1.15,2013-03-10 00:35:00,
2013-03-09 19:40:00,34.2,27.1,30.30,NNW,338,1.0,1.0,75,0.00,,,0.00,Wunderground v.1.15,2013-03-10 00:40:00,
2013-03-09 19:50:00,33.9,26.2,30.30,NNW,338,0.0,0.0,73,0.00,,,0.00,Wunderground v.1.15,2013-03-10 00:50:00,
2013-03-09 19:55:00,33.6,26.2,30.30,NNW,338,0.0,1.0,74,0.00,,,0.00,Wunderground v.1.15,2013-03-10 00:55:00,
2013-03-09 20:05:00,33.2,25.8,30.31,NNW,338,0.0,0.0,74,0.00,,,0.00,Wunderground v.1.15,2013-03-10 01:05:00,
2013-03-09 20:15:00,32.9,25.5,30.31,NNW,338,0.0,0.0,74,0.00,,,0.00,Wunderground v.1.15,2013-03-10 01:15:00,
2013-03-09 20:25:00,32.3,25.3,30.31,NNW,338,0.0,0.0,75,0.00,,,0.00,Wunderground v.1.15,2013-03-10 01:25:00,
2013-03-09 20:30:00,31.9,25.2,30.31,NNW,338,0.0,0.0,76,0.00,,,0.00,Wunderground v.1.15,2013-03-10 01:30:00,
2013-03-09 20:40:00,31.4,25.3,30.32,NNW,338,0.0,0.0,78,0.00,,,0.00,Wunderground v.1.15,2013-03-10 01:40:00,
2013-03-09 20:45:00,31.2,25.4,30.32,NNW,338,0.0,0.0,79,0.00,,,0.00,Wunderground v.1.15,2013-03-10 01:45:00,
2013-03-09 20:55:00,30.6,25.2,30.32,NNW,338,0.0,0.0,80,0.00,,,0.00,Wunderground v.1.15,2013-03-10 01:55:00,
2013-03-09 21:00:00,30.4,25.3,30.32,NNW,338,0.0,0.0,81,0.00,,,0.00,Wunderground v.1.15,2013-03-10 02:00:00,
2013-03-09 21:05:00,30.2,25.4,30.32,NNW,338,0.0,0.0,82,0.00,,,0.00,Wunderground v.1.15,2013-03-10 02:05:00,
2013-03-09 21:15:00,30.1,25.0,30.32,NNW,338,0.0,0.0,81,0.00,,,0.00,Wunderground v.1.15,2013-03-10 02:15:00,
2013-03-09 21:25:00,29.7,24.9,30.32,NNW,338,0.0,0.0,82,0.00,,,0.00,Wunderground v.1.15,2013-03-10 02:25:00,
2013-03-09 21:30:00,29.6,25.1,30.32,NNW,338,0.0,0.0,83,0.00,,,0.00,Wunderground v.1.15,2013-03-10 02:30:00,
2013-03-09 21:40:00,29.4,24.6,30.33,NNW,338,0.0,0.0,82,0.00,,,0.00,Wunderground v.1.15,2013-03-10 02:40:00,
2013-03-09 21:45:00,29.2,24.4,30.33,NNW,338,0.0,0.0,82,0.00,,,0.00,Wunderground v.1.15,2013-03-10 02:45:00,
2013-03-09 21:55:00,28.9,24.7,30.33,NNW,338,0.0,0.0,84,0.00,,,0.00,Wunderground v.1.15,2013-03-10 02:55:00,
2013-03-09 22:00:00,28.9,24.7,30.33,NNW,338,0.0,0.0,84,0.00,,,0.00,Wunderground v.1.15,2013-03-10 03:00:00,
2013-03-09 22:05:00,28.8,24.6,30.33,NNW,338,0.0,0.0,84,0.00,,,0.00,Wunderground v.1.15,2013-03-10 03:05:00,
2013-03-09 22:15:00,28.3,24.1,30.34,NNW,338,0.0,0.0,84,0.00,,,0.00,Wunderground v.1.15,2013-03-10 03:15:00,
2013-03-09 22:25:00,27.9,24.0,30.34,NNW,338,0.0,0.0,85,0.00,,,0.00,Wunderground v.1.15,2013-03-10 03:25:00,
2013-03-09 22:30:00,27.7,23.8,30.33,NNW,338,0.0,0.0,85,0.00,,,0.00,Wunderground v.1.15,2013-03-10 03:30:00,
2013-03-09 22:40:00,27.2,23.6,30.34,NNW,338,0.0,0.0,86,0.00,,,0.00,Wunderground v.1.15,2013-03-10 03:40:00,
2013-03-09 22:50:00,26.9,23.5,30.34,NNW,338,0.0,0.0,87,0.00,,,0.00,Wunderground v.1.15,2013-03-10 03:50:00,
2013-03-09 22:55:00,26.8,23.7,30.34,NNW,338,0.0,0.0,88,0.00,,,0.00,Wunderground v.1.15,2013-03-10 03:55:00,
2013-03-09 23:00:00,26.7,23.6,30.34,NNW,338,0.0,0.0,88,0.00,,,0.00,Wunderground v.1.15,2013-03-10 04:00:00,
2013-03-09 23:05:00,26.6,23.5,30.34,NNW,338,0.0,0.0,88,0.00,,,0.00,Wunderground v.1.15,2013-03-10 04:05:00,
2013-03-09 23:15:00,26.4,23.6,30.35,NNW,338,0.0,0.0,89,0.00,,,0.00,Wunderground v.1.15,2013-03-10 04:15:00,
2013-03-09 23:25:00,26.2,23.1,30.35,NNW,338,0.0,0.0,88,0.00,,,0.00,Wunderground v.1.15,2013-03-10 04:25:00,
2013-03-09 23:30:00,26.0,22.9,30.35,NNW,338,0.0,0.0,88,0.00,,,0.00,Wunderground v.1.15,2013-03-10 04:30:00,
2013-03-09 23:40:00,26.0,23.5,30.35,NNW,338,0.0,0.0,90,0.00,,,0.00,Wunderground v.1.15,2013-03-10 04:40:00,
2013-03-09 23:45:00,25.8,23.3,30.35,NNW,338,0.0,0.0,90,0.00,,,0.00,Wunderground v.1.15,2013-03-10 04:45:00,
2013-03-09 23:50:00,25.7,23.2,30.35,NNW,338,0.0,0.0,90,0.00,,,0.00,Wunderground v.1.15,2013-03-10 04:50:00,